1922 NOT_NAMED (1922303N11147)


IBTrACS version v04r00. Visit IBTrACS website for data access.
Please direct all questions to the IBTrACS Q and A forum

Storm track - Intensity - Wind Radii - Intensity Data - Source Data - All data

Summary Information

Storm ID 1922303N11147
Start Oct 29 22Z
End Nov 1 22Z
ATCF IDs
Track status Best track data.

Storm track plot

Map of storm track

Intensity plots

No Intensity information for this storm


Radial wind information

No radial wind information for this storm


Position and Intensity Table

BASIN ISO_TIME_________ NATURE LAT LON
degrees north degrees east
WP 1922-10-29 22:00:00 NR 11.30 146.90
WP 1922-10-30 00:00:00 NR 11.55 146.56
WP 03:00:00 NR 11.92 146.05
WP 06:00:00 NR 12.29 145.55
WP 09:00:00 NR 12.67 145.06
WP 10:00:00 NR 12.80 144.90
WP 12:00:00 NR 13.06 144.59
WP 15:00:00 NR 13.48 144.14
WP 18:00:00 NR 13.95 143.74
WP 21:00:00 NR 14.50 143.40
WP 22:00:00 NR 14.70 143.30
WP 1922-10-31 00:00:00 NR 15.15 143.12
WP 03:00:00 NR 15.89 142.90
WP 06:00:00 NR 16.69 142.74
WP 09:00:00 NR 17.52 142.63
WP 10:00:00 NR 17.80 142.60
WP 12:00:00 NR 18.37 142.50
WP 15:00:00 NR 19.23 142.39
WP 18:00:00 NR 20.05 142.34
WP 21:00:00 NR 20.79 142.37
WP 22:00:00 NR 21.00 142.40
WP 1922-11-01 00:00:00 NR 21.37 142.50
WP 03:00:00 NR 21.81 142.73
WP 06:00:00 NR 22.18 143.03
WP 09:00:00 NR 22.50 143.38
WP 10:00:00 NR 22.60 143.50
WP 12:00:00 NR 22.81 143.74
WP 15:00:00 NR 23.13 144.12
WP 18:00:00 NR 23.46 144.49
WP 21:00:00 NR 23.79 144.87
WP 22:00:00 NR 23.90 145.00

Source Information

Agency Information
USA
TOKYO
CMA
HKO
NEWDELHI
REUNION
BOM
NADI
WELLINGTON
DS824
TD9636 cons_worldwide_trop_cyclone_18710101-19891231-003:Line=6788
TD9635
NEUMANN
MLC

All available IBTrACS Data

SEASON BASIN SUBBASIN ISO_TIME_________ NATURE LAT LON DIST2LAND LANDFALL IFLAG USA SSHS TD9636 LAT TD9636 LON TD9636 STAGE STORM SPEED STORM DIR
Year degrees north degrees east km km 1 degrees north degrees east kts degrees
1922 WP MM 1922-10-29 22:00:00 NR 11.30 146.90 1501 1501 __________O___ -1 11.30 146.90 2 12 306
1922 WP MM 1922-10-30 00:00:00 NR 11.55 146.56 1523 1535 __________P___ -1 11.55 146.56 2 12 307
1922 WP MM 03:00:00 NR 11.92 146.05 1569 1570 __________P___ -1 11.92 146.05 2 12 307
1922 WP MM 06:00:00 NR 12.29 145.55 1617 1617 __________P___ -1 12.29 145.55 2 12 308
1922 WP MM 09:00:00 NR 12.67 145.06 1666 1667 __________P___ -1 12.67 145.06 2 12 309
1922 WP MM 10:00:00 NR 12.80 144.90 1679 1679 __________O___ -1 12.80 144.90 2 12 310
1922 WP MM 12:00:00 NR 13.06 144.59 1717 1717 __________P___ -1 13.06 144.59 2 12 313
1922 WP MM 15:00:00 NR 13.48 144.14 1769 1769 __________P___ -1 13.48 144.14 2 12 317
1922 WP MM 18:00:00 NR 13.95 143.74 1831 1831 __________P___ -1 13.95 143.74 2 13 325
1922 WP MM 21:00:00 NR 14.50 143.40 1892 1892 __________P___ -1 14.50 143.40 2 13 330
1922 WP MM 22:00:00 NR 14.70 143.30 1910 1910 __________O___ -1 14.70 143.30 2 14 337
1922 WP MM 1922-10-31 00:00:00 NR 15.15 143.12 1929 1918 __________P___ -1 15.15 143.12 2 15 342
1922 WP MM 03:00:00 NR 15.89 142.90 1922 1917 __________P___ -1 15.89 142.90 2 16 347
1922 WP MM 06:00:00 NR 16.69 142.74 1919 1901 __________P___ -1 16.69 142.74 2 17 351
1922 WP MM 09:00:00 NR 17.52 142.63 1901 1869 __________P___ -1 17.52 142.63 2 17 353
1922 WP MM 10:00:00 NR 17.80 142.60 1869 1803 __________O___ -1 17.80 142.60 2 17 352
1922 WP MM 12:00:00 NR 18.37 142.50 1803 1715 __________P___ -1 18.37 142.50 2 17 352
1922 WP MM 15:00:00 NR 19.23 142.39 1715 1618 __________P___ -1 19.23 142.39 2 17 355
1922 WP MM 18:00:00 NR 20.05 142.34 1618 1550 __________P___ -1 20.05 142.34 2 16 359
1922 WP MM 21:00:00 NR 20.79 142.37 1550 1529 __________P___ -1 20.79 142.37 2 14 3
1922 WP MM 22:00:00 NR 21.00 142.40 1529 1493 __________O___ -1 21.00 142.40 2 12 12
1922 WP MM 1922-11-01 00:00:00 NR 21.37 142.50 1493 1461 __________P___ -1 21.37 142.50 2 10 20
1922 WP MM 03:00:00 NR 21.81 142.73 1461 1435 __________P___ -1 21.81 142.73 2 10 31
1922 WP MM 06:00:00 NR 22.18 143.03 1435 1419 __________P___ -1 22.18 143.03 2 9 41
1922 WP MM 09:00:00 NR 22.50 143.38 1422 1415 __________P___ -1 22.50 143.38 2 9 46
1922 WP MM 10:00:00 NR 22.60 143.50 1415 1399 __________O___ -1 22.60 143.50 2 9 47
1922 WP MM 12:00:00 NR 22.81 143.74 1399 1375 __________P___ -1 22.81 143.74 2 9 47
1922 WP MM 15:00:00 NR 23.13 144.12 1378 1347 __________P___ -1 23.13 144.12 2 9 47
1922 WP MM 18:00:00 NR 23.46 144.49 1347 1326 __________P___ -1 23.46 144.49 2 10 47
1922 WP MM 21:00:00 NR 23.79 144.87 1329 1322 __________P___ -1 23.79 144.87 2 10 47
1922 WP MM 22:00:00 NR 23.90 145.00 1322 __________O___ -1 23.90 145.00 7 10 48